Mlawa, Poland
Current Conditions -  °F | °C
As of 10:30 PM on Friday 28 Nov 2014 (Local Time) from EPMO Reporting Station
Overcast Overcast  
Wind Chill: 16°   Ceiling: 1200
Heat Index: 27°   Visibility: 4mi
Dew Point: 23°   Wind: 13mph
Humidity: 86%   Direction: 100°E
Pressure: 30.36"   Gusts: NA
Location:  53.12°N, 20.36°E
Report Text: EPMO 282030Z 10011KT 7000 OVC012 M03/M05 Q1028
Loading
Personal Weather Stations






























Interactive Weather Map New forecast layout! Learn more

10-Day Weather Forecast

Advertisements
Track Severe Weather on mobile